createdAt,value
2022-09-21T00:00:00.281Z,102380
2022-09-21T00:01:03.956Z,102380
2022-09-21T00:02:00.266Z,102380
2022-09-21T00:03:00.211Z,102380
2022-09-21T00:04:01.239Z,102380
2022-09-21T00:05:00.250Z,102380
2022-09-21T00:06:00.989Z,102380
2022-09-21T00:07:00.220Z,102380
2022-09-21T00:08:00.722Z,102380
2022-09-21T00:09:00.200Z,102380
2022-09-21T00:10:00.238Z,102380
2022-09-21T00:11:00.728Z,102380
2022-09-21T00:12:00.318Z,102380
2022-09-21T00:13:00.209Z,102380
2022-09-21T00:14:02.028Z,102380
2022-09-21T00:15:00.215Z,102380
2022-09-21T00:16:00.354Z,102380
2022-09-21T00:17:00.209Z,102380
2022-09-21T00:18:00.203Z,102380
2022-09-21T00:19:00.256Z,102380
2022-09-21T00:20:00.358Z,102380
2022-09-21T00:21:00.527Z,102380
2022-09-21T00:22:00.217Z,102380
2022-09-21T00:23:00.202Z,102380
2022-09-21T00:24:00.309Z,102380
2022-09-21T00:25:00.714Z,102380
2022-09-21T00:26:10.127Z,102380
2022-09-21T00:27:00.206Z,102380
2022-09-21T00:28:00.384Z,102380
2022-09-21T00:29:01.139Z,102380
2022-09-21T00:30:00.736Z,102380
2022-09-21T00:31:01.079Z,102380
2022-09-21T00:32:00.406Z,102380
2022-09-21T00:33:00.205Z,102370
2022-09-21T00:34:00.326Z,102370
2022-09-21T00:35:00.565Z,102370
2022-09-21T00:36:09.067Z,102370
2022-09-21T00:37:00.198Z,102370
2022-09-21T00:38:00.758Z,102370
2022-09-21T00:39:00.686Z,102370
2022-09-21T00:40:00.423Z,102370
2022-09-21T00:41:00.229Z,102370
2022-09-21T00:42:00.202Z,102370
2022-09-21T00:43:10.113Z,102370
2022-09-21T00:44:10.123Z,102380
2022-09-21T00:45:00.289Z,102380
2022-09-21T00:46:02.810Z,102380
2022-09-21T00:47:05.792Z,102370
2022-09-21T00:48:00.399Z,102370
2022-09-21T00:49:00.322Z,102370
2022-09-21T00:50:02.234Z,102370
2022-09-21T00:51:01.971Z,102380
2022-09-21T00:52:01.393Z,102380
2022-09-21T00:53:02.455Z,102380
2022-09-21T00:54:02.087Z,102380
2022-09-21T00:55:03.200Z,102380
2022-09-21T00:56:01.195Z,102380
2022-09-21T00:57:00.374Z,102380
2022-09-21T00:58:04.550Z,102380
2022-09-21T00:59:00.421Z,102380
2022-09-21T01:00:03.610Z,102380
2022-09-21T01:01:00.381Z,102380
2022-09-21T01:02:00.365Z,102380
2022-09-21T01:03:00.261Z,102380
2022-09-21T01:04:00.404Z,102380
2022-09-21T01:05:01.755Z,102380
2022-09-21T01:06:00.219Z,102380
2022-09-21T01:07:03.693Z,102380
2022-09-21T01:08:02.286Z,102380
2022-09-21T01:09:00.416Z,102380
2022-09-21T01:10:03.286Z,102380
2022-09-21T01:11:11.074Z,102380
2022-09-21T01:12:01.201Z,102380
2022-09-21T01:13:03.500Z,102380
2022-09-21T01:14:10.129Z,102380
2022-09-21T01:15:10.133Z,102380
2022-09-21T01:16:10.142Z,102380
2022-09-21T01:17:05.839Z,102380
2022-09-21T01:18:10.124Z,102380
2022-09-21T01:19:10.118Z,102380
2022-09-21T01:20:00.248Z,102380
2022-09-21T01:21:07.584Z,102380
2022-09-21T01:22:01.192Z,102380
2022-09-21T01:23:07.750Z,102380
2022-09-21T01:24:03.509Z,102380
2022-09-21T01:25:09.356Z,102380
2022-09-21T01:26:03.507Z,102380
2022-09-21T01:27:01.204Z,102380
2022-09-21T01:28:06.749Z,102380
2022-09-21T01:29:00.220Z,102380
2022-09-21T01:30:03.322Z,102380
2022-09-21T01:31:02.771Z,102380
2022-09-21T01:32:10.123Z,102390
2022-09-21T01:33:10.115Z,102390
2022-09-21T01:34:06.243Z,102390
2022-09-21T01:35:01.263Z,102380
2022-09-21T01:36:03.946Z,102380
2022-09-21T01:37:02.977Z,102390
2022-09-21T01:38:02.679Z,102390
2022-09-21T01:39:04.443Z,102380
2022-09-21T01:40:04.145Z,102380
2022-09-21T01:41:03.162Z,102380
2022-09-21T01:42:01.638Z,102380
2022-09-21T01:43:01.448Z,102380
2022-09-21T01:44:06.057Z,102380
2022-09-21T01:45:02.623Z,102380
2022-09-21T01:46:02.364Z,102380
2022-09-21T01:47:01.596Z,102380
2022-09-21T01:48:00.411Z,102380
2022-09-21T01:49:04.936Z,102380
2022-09-21T01:50:01.993Z,102380
2022-09-21T01:51:02.865Z,102380
2022-09-21T01:52:05.211Z,102380
2022-09-21T01:53:04.331Z,102380
2022-09-21T01:54:06.622Z,102380
2022-09-21T01:55:04.516Z,102380
2022-09-21T01:56:04.038Z,102380
2022-09-21T01:57:05.286Z,102380
2022-09-21T01:58:05.929Z,102380
2022-09-21T01:59:05.834Z,102380
2022-09-21T02:00:00.516Z,102380
2022-09-21T02:01:01.483Z,102380
2022-09-21T02:02:03.898Z,102380
2022-09-21T02:03:04.412Z,102380
2022-09-21T02:04:03.938Z,102380
2022-09-21T02:05:01.124Z,102370
2022-09-21T02:06:00.573Z,102370
2022-09-21T02:07:00.257Z,102370
2022-09-21T02:08:00.331Z,102370
2022-09-21T02:09:00.200Z,102380
2022-09-21T02:10:01.168Z,102380
2022-09-21T02:11:01.573Z,102380
2022-09-21T02:12:00.258Z,102380
2022-09-21T02:13:01.919Z,102380
2022-09-21T02:14:00.188Z,102380
2022-09-21T02:15:01.065Z,102380
2022-09-21T02:16:00.170Z,102380
2022-09-21T02:17:10.083Z,102380
2022-09-21T02:18:10.088Z,102380
2022-09-21T02:19:00.133Z,102380
2022-09-21T02:20:07.720Z,102380
2022-09-21T02:21:02.754Z,102380
2022-09-21T02:22:04.142Z,102380
2022-09-21T02:23:10.086Z,102380
2022-09-21T02:24:07.376Z,102380
2022-09-21T02:25:06.333Z,102380
2022-09-21T02:26:00.141Z,102380
2022-09-21T02:27:03.488Z,102380
2022-09-21T02:28:05.850Z,102380
2022-09-21T02:29:09.334Z,102380
2022-09-21T02:30:01.150Z,102380
2022-09-21T02:31:05.278Z,102380
2022-09-21T02:32:01.150Z,102380
2022-09-21T02:33:10.085Z,102390
2022-09-21T02:34:00.141Z,102390
2022-09-21T02:35:05.038Z,102380
2022-09-21T02:36:10.086Z,102380
2022-09-21T02:37:10.091Z,102380
2022-09-21T02:38:03.409Z,102380
2022-09-21T02:39:06.164Z,102390
2022-09-21T02:40:03.357Z,102390
2022-09-21T02:41:07.569Z,102390
2022-09-21T02:42:04.582Z,102390
2022-09-21T02:43:08.334Z,102390
2022-09-21T02:44:00.140Z,102390
2022-09-21T02:45:08.547Z,102390
2022-09-21T02:46:03.773Z,102390
2022-09-21T02:47:03.275Z,102380
2022-09-21T02:48:07.425Z,102380
2022-09-21T02:49:03.777Z,102380
2022-09-21T02:50:03.124Z,102380
2022-09-21T02:51:04.973Z,102380
2022-09-21T02:52:03.822Z,102380
2022-09-21T02:53:01.784Z,102390
2022-09-21T02:54:02.459Z,102390
2022-09-21T02:55:00.706Z,102380
2022-09-21T02:56:00.624Z,102380
2022-09-21T02:57:01.461Z,102380
2022-09-21T02:58:02.800Z,102380
2022-09-21T02:59:02.309Z,102380
2022-09-21T03:00:00.575Z,102380
2022-09-21T03:01:00.379Z,102380
2022-09-21T03:02:00.344Z,102380
2022-09-21T03:03:10.108Z,102380
2022-09-21T03:04:00.301Z,102380
2022-09-21T03:05:00.192Z,102380
2022-09-21T03:06:00.765Z,102380
2022-09-21T03:07:00.160Z,102380
2022-09-21T03:08:00.232Z,102380
2022-09-21T03:09:00.207Z,102380
2022-09-21T03:10:00.192Z,102380
2022-09-21T03:11:00.152Z,102380
2022-09-21T03:12:00.272Z,102380
2022-09-21T03:13:00.208Z,102380
2022-09-21T03:14:00.265Z,102380
2022-09-21T03:15:00.160Z,102380
2022-09-21T03:16:00.898Z,102380
2022-09-21T03:17:00.159Z,102380
2022-09-21T03:18:00.242Z,102380
2022-09-21T03:19:00.277Z,102380
2022-09-21T03:20:00.263Z,102380
2022-09-21T03:21:00.196Z,102390
2022-09-21T03:22:00.157Z,102390
2022-09-21T03:23:00.539Z,102390
2022-09-21T03:24:00.251Z,102390
2022-09-21T03:25:00.181Z,102390
2022-09-21T03:26:00.160Z,102390
2022-09-21T03:27:00.157Z,102390
2022-09-21T03:28:00.296Z,102390
2022-09-21T03:29:00.201Z,102390
2022-09-21T03:30:02.289Z,102390
2022-09-21T03:31:00.297Z,102390
2022-09-21T03:32:00.267Z,102390
2022-09-21T03:33:00.150Z,102390
2022-09-21T03:35:00.163Z,102390
2022-09-21T03:38:00.480Z,102390
2022-09-21T03:39:00.167Z,102390
2022-09-21T03:41:00.202Z,102390
2022-09-21T03:44:00.247Z,102400
2022-09-21T03:45:00.156Z,102390
2022-09-21T03:55:00.170Z,102400
2022-09-21T03:56:00.281Z,102400
2022-09-21T03:57:00.160Z,102400
2022-09-21T03:58:00.477Z,102410
2022-09-21T03:59:00.184Z,102410
2022-09-21T04:00:00.747Z,102410
2022-09-21T04:01:00.950Z,102410
2022-09-21T04:02:00.197Z,102400
2022-09-21T04:03:00.291Z,102400
2022-09-21T04:04:00.272Z,102400
2022-09-21T04:05:00.207Z,102400
2022-09-21T04:06:00.167Z,102410
2022-09-21T04:07:00.155Z,102410
2022-09-21T04:08:00.256Z,102400
2022-09-21T04:09:00.156Z,102400
2022-09-21T04:10:01.071Z,102410
2022-09-21T04:11:00.142Z,102410
2022-09-21T04:12:00.256Z,102400
2022-09-21T04:13:01.133Z,102400
2022-09-21T04:14:00.147Z,102400
2022-09-21T04:15:00.365Z,102400
2022-09-21T04:16:00.273Z,102400
2022-09-21T04:17:00.159Z,102400
2022-09-21T04:18:00.167Z,102400
2022-09-21T04:19:00.151Z,102400
2022-09-21T04:20:00.262Z,102400
2022-09-21T04:21:00.174Z,102400
2022-09-21T04:22:00.151Z,102400
2022-09-21T04:23:00.157Z,102400
2022-09-21T04:24:00.258Z,102400
2022-09-21T04:25:00.159Z,102400
2022-09-21T04:26:00.952Z,102400
2022-09-21T04:27:00.155Z,102400
2022-09-21T04:28:00.281Z,102400
2022-09-21T04:29:00.379Z,102400
2022-09-21T04:30:00.159Z,102400
2022-09-21T04:31:00.225Z,102400
2022-09-21T04:32:00.314Z,102400
2022-09-21T04:33:00.158Z,102400
2022-09-21T04:34:00.155Z,102400
2022-09-21T04:35:00.155Z,102400
2022-09-21T04:36:00.242Z,102400
2022-09-21T04:37:00.161Z,102400
2022-09-21T04:38:00.324Z,102400
2022-09-21T04:39:00.160Z,102400
2022-09-21T04:40:00.374Z,102410
2022-09-21T04:41:00.160Z,102410
2022-09-21T04:42:00.467Z,102410
2022-09-21T04:43:00.168Z,102410
2022-09-21T04:44:00.264Z,102410
2022-09-21T04:45:00.236Z,102410
2022-09-21T04:46:04.174Z,102410
2022-09-21T04:47:00.149Z,102410
2022-09-21T04:48:00.269Z,102410
2022-09-21T04:49:00.152Z,102410
2022-09-21T04:50:00.185Z,102410
2022-09-21T04:51:00.703Z,102410
2022-09-21T04:52:00.296Z,102410
2022-09-21T04:53:00.154Z,102410
2022-09-21T04:54:00.249Z,102410
2022-09-21T04:55:00.159Z,102410
2022-09-21T04:56:00.277Z,102410
2022-09-21T04:57:00.177Z,102410
2022-09-21T04:58:00.182Z,102420
2022-09-21T04:59:00.157Z,102420
2022-09-21T05:00:00.512Z,102420
2022-09-21T05:01:00.700Z,102420
2022-09-21T05:02:00.159Z,102420
2022-09-21T05:03:00.198Z,102420
2022-09-21T05:04:00.307Z,102420
2022-09-21T05:05:00.146Z,102420
2022-09-21T05:08:00.263Z,102420
2022-09-21T05:09:00.172Z,102420
2022-09-21T05:10:00.150Z,102420
2022-09-21T05:11:00.159Z,102420
2022-09-21T05:12:00.254Z,102420
2022-09-21T05:13:00.153Z,102420
2022-09-21T05:14:00.152Z,102430
2022-09-21T05:15:00.407Z,102430
2022-09-21T05:16:00.395Z,102430
2022-09-21T05:17:00.174Z,102430
2022-09-21T05:18:00.164Z,102430
2022-09-21T05:19:00.162Z,102430
2022-09-21T05:20:00.266Z,102430
2022-09-21T05:21:00.830Z,102430
2022-09-21T05:22:00.208Z,102440
2022-09-21T05:23:00.518Z,102440
2022-09-21T05:24:00.261Z,102430
2022-09-21T05:25:00.170Z,102430
2022-09-21T05:26:00.163Z,102430
2022-09-21T05:27:00.608Z,102430
2022-09-21T05:28:00.286Z,102430
2022-09-21T05:29:00.320Z,102430
2022-09-21T05:30:00.358Z,102430
2022-09-21T05:31:16.570Z,102430
2022-09-21T05:32:04.216Z,102440
2022-09-21T05:33:02.247Z,102440
2022-09-21T05:34:05.799Z,102440
2022-09-21T05:35:05.170Z,102440
2022-09-21T05:36:00.135Z,102440
2022-09-21T05:37:08.102Z,102440
2022-09-21T05:38:02.944Z,102440
2022-09-21T05:39:00.315Z,102440
2022-09-21T05:40:00.443Z,102450
2022-09-21T05:41:00.334Z,102450
2022-09-21T05:42:00.502Z,102450
2022-09-21T05:43:00.267Z,102450
2022-09-21T05:44:00.347Z,102450
2022-09-21T05:45:00.276Z,102450
2022-09-21T05:46:03.628Z,102450
2022-09-21T05:47:05.682Z,102450
2022-09-21T05:48:03.416Z,102450
2022-09-21T05:49:04.350Z,102450
2022-09-21T05:50:10.100Z,102460
2022-09-21T05:51:04.085Z,102460
2022-09-21T05:52:05.819Z,102460
2022-09-21T05:53:08.561Z,102450
2022-09-21T05:54:00.140Z,102450
2022-09-21T05:55:06.164Z,102450
2022-09-21T05:56:04.298Z,102450
2022-09-21T05:57:10.094Z,102450
2022-09-21T05:58:01.149Z,102450
2022-09-21T05:59:10.095Z,102460
2022-09-21T06:00:01.143Z,102460
2022-09-21T06:01:00.202Z,102460
2022-09-21T06:02:10.127Z,102460
2022-09-21T06:03:13.240Z,102460
2022-09-21T06:04:01.107Z,102460
2022-09-21T06:05:00.350Z,102460
2022-09-21T06:06:00.208Z,102460
2022-09-21T06:07:00.156Z,102460
2022-09-21T06:08:00.224Z,102460
2022-09-21T06:15:00.272Z,102470
2022-09-21T06:16:00.851Z,102470
2022-09-21T06:17:01.443Z,102480
2022-09-21T06:18:00.178Z,102480
2022-09-21T06:19:00.151Z,102480
2022-09-21T06:20:00.275Z,102480
2022-09-21T06:21:00.152Z,102480
2022-09-21T06:22:00.182Z,102480
2022-09-21T06:23:01.384Z,102480
2022-09-21T06:24:00.269Z,102480
2022-09-21T06:25:00.394Z,102480
2022-09-21T06:26:00.210Z,102480
2022-09-21T06:27:00.153Z,102480
2022-09-21T06:28:01.129Z,102480
2022-09-21T06:29:00.171Z,102480
2022-09-21T06:30:00.183Z,102480
2022-09-21T06:31:00.200Z,102470
2022-09-21T06:32:00.919Z,102470
2022-09-21T06:33:01.083Z,102470
2022-09-21T06:34:00.151Z,102470
2022-09-21T06:35:00.155Z,102470
2022-09-21T06:36:00.251Z,102470
2022-09-21T06:37:00.158Z,102470
2022-09-21T06:38:01.142Z,102470
2022-09-21T06:39:00.167Z,102470
2022-09-21T06:40:00.332Z,102470
2022-09-21T06:41:01.313Z,102470
2022-09-21T06:42:00.158Z,102470
2022-09-21T06:43:01.642Z,102470
2022-09-21T06:44:00.249Z,102470
2022-09-21T06:45:00.163Z,102470
2022-09-21T06:46:00.872Z,102470
2022-09-21T06:47:00.153Z,102470
2022-09-21T06:48:00.283Z,102470
2022-09-21T06:49:00.265Z,102480
2022-09-21T06:50:00.176Z,102480
2022-09-21T06:51:01.224Z,102470
2022-09-21T06:52:00.265Z,102470
2022-09-21T06:53:00.351Z,102480
2022-09-21T06:54:00.166Z,102480
2022-09-21T06:55:00.157Z,102470
2022-09-21T06:56:03.438Z,102470
2022-09-21T06:57:00.348Z,102470
2022-09-21T06:58:00.704Z,102470
2022-09-21T06:59:00.168Z,102470
2022-09-21T07:00:00.251Z,102470
2022-09-21T07:01:03.469Z,102470
2022-09-21T07:02:00.286Z,102470
2022-09-21T07:03:00.154Z,102470
2022-09-21T07:04:00.278Z,102470
2022-09-21T07:05:00.706Z,102470
2022-09-21T07:06:00.166Z,102470
2022-09-21T07:07:02.922Z,102470
2022-09-21T07:08:00.542Z,102470
2022-09-21T07:10:09.028Z,102470
2022-09-21T07:11:00.329Z,102470
2022-09-21T07:12:00.255Z,102470
2022-09-21T07:13:02.441Z,102480
2022-09-21T07:14:00.165Z,102480
2022-09-21T07:15:00.784Z,102480
2022-09-21T07:16:03.762Z,102480
2022-09-21T07:17:00.168Z,102480
2022-09-21T07:18:06.035Z,102480
2022-09-21T07:19:10.359Z,102480
2022-09-21T07:20:00.432Z,102480
2022-09-21T07:21:02.052Z,102480
2022-09-21T07:22:00.151Z,102480
2022-09-21T07:23:00.152Z,102480
2022-09-21T07:24:00.282Z,102480
2022-09-21T07:25:00.161Z,102480
2022-09-21T07:26:02.913Z,102480
2022-09-21T07:27:00.146Z,102480
2022-09-21T07:28:00.224Z,102480
2022-09-21T07:29:00.151Z,102480
2022-09-21T07:30:00.192Z,102480
2022-09-21T07:31:08.635Z,102480
2022-09-21T07:32:00.305Z,102480
2022-09-21T07:33:00.152Z,102480
2022-09-21T07:34:00.215Z,102480
2022-09-21T07:35:00.157Z,102480
2022-09-21T07:36:00.562Z,102480
2022-09-21T07:37:00.152Z,102480
2022-09-21T07:38:01.591Z,102480
2022-09-21T07:39:00.221Z,102480
2022-09-21T07:40:00.316Z,102480
2022-09-21T07:41:00.619Z,102470
2022-09-21T07:42:00.328Z,102470
2022-09-21T07:43:00.690Z,102470
2022-09-21T07:44:00.348Z,102470
2022-09-21T07:45:04.385Z,102470
2022-09-21T07:46:00.343Z,102470
2022-09-21T07:47:00.163Z,102470
2022-09-21T07:48:02.227Z,102470
2022-09-21T07:49:00.258Z,102470
2022-09-21T07:50:00.233Z,102470
2022-09-21T07:51:01.000Z,102480
2022-09-21T07:52:03.541Z,102480
2022-09-21T07:53:00.489Z,102470
2022-09-21T07:54:00.151Z,102470
2022-09-21T07:55:00.158Z,102470
2022-09-21T07:56:01.445Z,102470
2022-09-21T07:57:00.193Z,102470
2022-09-21T07:58:00.173Z,102470
2022-09-21T07:59:00.153Z,102470
2022-09-21T08:00:00.238Z,102470
2022-09-21T08:01:03.873Z,102470
2022-09-21T08:02:00.228Z,102470
2022-09-21T08:03:00.155Z,102470
2022-09-21T08:04:00.451Z,102470
2022-09-21T08:05:00.167Z,102470
2022-09-21T08:06:00.171Z,102470
2022-09-21T08:07:00.153Z,102470
2022-09-21T08:08:00.225Z,102470
2022-09-21T08:09:00.684Z,102470
2022-09-21T08:10:00.161Z,102470
2022-09-21T08:11:02.145Z,102460
2022-09-21T08:12:00.240Z,102460
2022-09-21T08:13:00.402Z,102470
2022-09-21T08:14:00.899Z,102470
2022-09-21T08:15:00.207Z,102470
2022-09-21T08:16:01.122Z,102470
2022-09-21T08:17:00.386Z,102460
2022-09-21T08:18:00.154Z,102460
2022-09-21T08:19:00.161Z,102460
2022-09-21T08:20:00.321Z,102460
2022-09-21T08:21:00.168Z,102460
2022-09-21T08:22:00.162Z,102460
2022-09-21T08:23:00.163Z,102470
2022-09-21T08:24:00.241Z,102470
2022-09-21T08:25:00.162Z,102470
2022-09-21T08:26:01.672Z,102470
2022-09-21T08:27:00.153Z,102470
2022-09-21T08:28:00.273Z,102470
2022-09-21T08:29:00.455Z,102470
2022-09-21T08:30:00.177Z,102470
2022-09-21T08:31:00.729Z,102470
2022-09-21T08:32:00.390Z,102470
2022-09-21T08:33:00.157Z,102470
2022-09-21T08:34:00.199Z,102470
2022-09-21T08:35:00.155Z,102470
2022-09-21T08:36:00.594Z,102470
2022-09-21T08:37:00.165Z,102470
2022-09-21T08:38:00.199Z,102470
2022-09-21T08:39:00.155Z,102470
2022-09-21T08:40:00.637Z,102470
2022-09-21T08:41:01.536Z,102470
2022-09-21T08:42:03.413Z,102470
2022-09-21T08:43:07.725Z,102470
2022-09-21T08:44:08.545Z,102470
2022-09-21T08:45:03.422Z,102470
2022-09-21T08:46:02.485Z,102470
2022-09-21T08:47:04.302Z,102470
2022-09-21T08:48:03.604Z,102470
2022-09-21T08:49:04.196Z,102470
2022-09-21T08:50:01.965Z,102470
2022-09-21T08:51:02.985Z,102460
2022-09-21T08:52:01.917Z,102460
2022-09-21T08:53:02.980Z,102470
2022-09-21T08:54:06.006Z,102470
2022-09-21T08:55:13.103Z,102470
2022-09-21T08:56:00.376Z,102470
2022-09-21T08:57:05.494Z,102470
2022-09-21T08:58:00.185Z,102470
2022-09-21T08:59:00.169Z,102470
2022-09-21T09:00:00.716Z,102470
2022-09-21T09:01:03.587Z,102470
2022-09-21T09:02:10.132Z,102470
2022-09-21T09:03:00.136Z,102470
2022-09-21T09:04:05.328Z,102470
2022-09-21T09:05:10.101Z,102470
2022-09-21T09:06:04.099Z,102470
2022-09-21T09:07:06.636Z,102480
2022-09-21T09:08:10.088Z,102480
2022-09-21T09:09:01.150Z,102480
2022-09-21T09:10:00.142Z,102480
2022-09-21T09:11:10.104Z,102480
2022-09-21T09:12:11.002Z,102480
2022-09-21T09:13:07.246Z,102480
2022-09-21T09:14:06.508Z,102480
2022-09-21T09:15:00.154Z,102480
2022-09-21T09:16:01.230Z,102480
2022-09-21T09:17:10.085Z,102480
2022-09-21T09:18:07.006Z,102480
2022-09-21T09:19:09.248Z,102480
2022-09-21T09:20:10.094Z,102480
2022-09-21T09:21:03.921Z,102480
2022-09-21T09:22:01.868Z,102480
2022-09-21T09:23:05.442Z,102480
2022-09-21T09:24:00.146Z,102480
2022-09-21T09:25:03.226Z,102480
2022-09-21T09:26:03.644Z,102480
2022-09-21T09:27:03.310Z,102480
2022-09-21T09:28:04.688Z,102480
2022-09-21T09:29:02.263Z,102480
2022-09-21T09:30:10.099Z,102480
2022-09-21T09:31:04.253Z,102480
2022-09-21T09:32:00.619Z,102480
2022-09-21T09:33:10.087Z,102480
2022-09-21T09:34:00.143Z,102480
2022-09-21T09:35:10.101Z,102480
2022-09-21T09:36:02.381Z,102480
2022-09-21T09:37:08.048Z,102480
2022-09-21T09:38:07.801Z,102480
2022-09-21T09:39:10.094Z,102480
2022-09-21T09:40:00.506Z,102480
2022-09-21T09:41:00.151Z,102480
2022-09-21T09:42:10.086Z,102480
2022-09-21T09:43:10.104Z,102480
2022-09-21T09:44:10.101Z,102480
2022-09-21T09:45:10.096Z,102480
2022-09-21T09:46:09.704Z,102480
2022-09-21T09:47:01.272Z,102480
2022-09-21T09:48:00.139Z,102480
2022-09-21T09:49:10.089Z,102480
2022-09-21T09:50:10.090Z,102480
2022-09-21T09:51:00.346Z,102480
2022-09-21T09:52:00.425Z,102480
2022-09-21T09:53:05.487Z,102490
2022-09-21T09:54:00.697Z,102490
2022-09-21T09:55:09.995Z,102490
2022-09-21T09:56:00.277Z,102490
2022-09-21T09:57:01.895Z,102480
2022-09-21T09:58:00.687Z,102480
2022-09-21T09:59:02.408Z,102480
2022-09-21T10:00:04.379Z,102480
2022-09-21T10:01:00.183Z,102480
2022-09-21T10:02:02.071Z,102480
2022-09-21T10:03:00.163Z,102480
2022-09-21T10:04:04.516Z,102480
2022-09-21T10:05:01.144Z,102470
2022-09-21T10:06:00.167Z,102470
2022-09-21T10:07:00.308Z,102470
2022-09-21T10:08:00.530Z,102470
2022-09-21T10:09:00.158Z,102470
2022-09-21T10:10:00.201Z,102470
2022-09-21T10:11:00.320Z,102480
2022-09-21T10:12:02.732Z,102480
2022-09-21T10:13:04.319Z,102480
2022-09-21T10:14:09.056Z,102480
2022-09-21T10:15:00.185Z,102480
2022-09-21T10:16:01.735Z,102480
2022-09-21T10:17:04.435Z,102480
2022-09-21T10:18:06.402Z,102480
2022-09-21T10:19:00.259Z,102480
2022-09-21T10:20:01.024Z,102480
2022-09-21T10:21:01.480Z,102480
2022-09-21T10:22:01.124Z,102480
2022-09-21T10:23:00.205Z,102480
2022-09-21T10:24:01.749Z,102480
2022-09-21T10:25:00.340Z,102480
2022-09-21T10:26:00.138Z,102480
2022-09-21T10:27:03.731Z,102470
2022-09-21T10:28:00.323Z,102470
2022-09-21T10:29:10.095Z,102470
2022-09-21T10:30:00.416Z,102470
2022-09-21T10:31:10.194Z,102470
2022-09-21T10:32:01.513Z,102470
2022-09-21T10:33:00.631Z,102470
2022-09-21T10:34:03.409Z,102470
2022-09-21T10:35:10.092Z,102470
2022-09-21T10:36:00.249Z,102470
2022-09-21T10:37:01.505Z,102460
2022-09-21T10:38:10.090Z,102460
2022-09-21T10:39:10.091Z,102460
2022-09-21T10:40:00.491Z,102460
2022-09-21T10:41:00.213Z,102450
2022-09-21T10:42:00.128Z,102450
2022-09-21T10:43:00.260Z,102450
2022-09-21T10:44:00.218Z,102450
2022-09-21T10:45:05.652Z,102450
2022-09-21T10:46:00.876Z,102450
2022-09-21T10:47:02.755Z,102450
2022-09-21T10:48:07.177Z,102450
2022-09-21T10:49:01.264Z,102450
2022-09-21T10:50:01.430Z,102450
2022-09-21T10:51:00.942Z,102450
2022-09-21T10:52:00.731Z,102450
2022-09-21T10:53:10.095Z,102450
2022-09-21T10:54:00.162Z,102450
2022-09-21T10:55:00.387Z,102450
2022-09-21T10:56:15.906Z,102450
2022-09-21T10:57:02.807Z,102450
2022-09-21T10:58:00.227Z,102450
2022-09-21T10:59:10.093Z,102440
2022-09-21T11:00:10.089Z,102440
2022-09-21T11:01:09.407Z,102440
2022-09-21T11:02:01.165Z,102440
2022-09-21T11:03:05.228Z,102450
2022-09-21T11:04:00.159Z,102450
2022-09-21T11:05:04.976Z,102440
2022-09-21T11:06:04.205Z,102440
2022-09-21T11:07:03.627Z,102440
2022-09-21T11:08:07.534Z,102440
2022-09-21T11:09:05.485Z,102440
2022-09-21T11:10:00.177Z,102440
2022-09-21T11:11:10.092Z,102440
2022-09-21T11:12:06.023Z,102440
2022-09-21T11:13:10.092Z,102440
2022-09-21T11:14:10.087Z,102440
2022-09-21T11:15:10.097Z,102440
2022-09-21T11:16:03.467Z,102440
2022-09-21T11:17:10.092Z,102440
2022-09-21T11:18:04.956Z,102440
2022-09-21T11:19:01.148Z,102440
2022-09-21T11:20:04.519Z,102440
2022-09-21T11:21:04.614Z,102440
2022-09-21T11:22:01.150Z,102440
2022-09-21T11:23:10.085Z,102440
2022-09-21T11:24:04.971Z,102440
2022-09-21T11:25:05.527Z,102440
2022-09-21T11:26:06.206Z,102440
2022-09-21T11:27:03.403Z,102440
2022-09-21T11:28:04.260Z,102440
2022-09-21T11:29:04.220Z,102440
2022-09-21T11:30:08.651Z,102440
2022-09-21T11:31:10.145Z,102450
2022-09-21T11:32:05.931Z,102450
2022-09-21T11:33:09.081Z,102440
2022-09-21T11:34:10.086Z,102440
2022-09-21T11:35:00.142Z,102440
2022-09-21T11:36:01.147Z,102440
2022-09-21T11:37:00.143Z,102440
2022-09-21T11:38:04.440Z,102440
2022-09-21T11:39:03.449Z,102440
2022-09-21T11:40:00.274Z,102440
2022-09-21T11:41:10.097Z,102440
2022-09-21T11:42:10.087Z,102440
2022-09-21T11:43:10.212Z,102440
2022-09-21T11:44:10.488Z,102440
2022-09-21T11:45:00.901Z,102440
2022-09-21T11:46:10.177Z,102440
2022-09-21T11:47:10.088Z,102430
2022-09-21T11:48:07.583Z,102430
2022-09-21T11:49:03.413Z,102430
2022-09-21T11:50:26.293Z,102430
2022-09-21T11:51:08.624Z,102430
2022-09-21T11:52:10.093Z,102430
2022-09-21T11:53:00.141Z,102420
2022-09-21T11:54:07.456Z,102420
2022-09-21T11:55:00.137Z,102420
2022-09-21T11:56:00.143Z,102420
2022-09-21T11:57:01.141Z,102420
2022-09-21T11:58:08.905Z,102420
2022-09-21T11:59:01.147Z,102420
2022-09-21T12:00:09.985Z,102420
2022-09-21T12:01:03.435Z,102420
2022-09-21T12:02:10.221Z,102420
2022-09-21T12:03:10.092Z,102410
2022-09-21T12:04:10.096Z,102410
2022-09-21T12:05:10.098Z,102410
2022-09-21T12:06:01.142Z,102410
2022-09-21T12:07:00.135Z,102420
2022-09-21T12:08:10.091Z,102420
2022-09-21T12:09:10.087Z,102420
2022-09-21T12:10:11.107Z,102420
2022-09-21T12:11:01.162Z,102410
2022-09-21T12:12:00.185Z,102410
2022-09-21T12:13:07.444Z,102410
2022-09-21T12:14:04.886Z,102410
2022-09-21T12:15:04.280Z,102410
2022-09-21T12:16:10.090Z,102410
2022-09-21T12:17:10.125Z,102410
2022-09-21T12:18:01.138Z,102410
2022-09-21T12:19:10.089Z,102410
2022-09-21T12:20:00.146Z,102410
2022-09-21T12:21:10.092Z,102410
2022-09-21T12:22:05.274Z,102410
2022-09-21T12:23:02.604Z,102400
2022-09-21T12:24:03.288Z,102400
2022-09-21T12:25:10.093Z,102400
2022-09-21T12:26:01.282Z,102400
2022-09-21T12:27:02.981Z,102400
2022-09-21T12:28:05.248Z,102400
2022-09-21T12:29:02.434Z,102400
2022-09-21T12:30:03.335Z,102400
2022-09-21T12:31:03.051Z,102390
2022-09-21T12:32:03.421Z,102390
2022-09-21T12:33:09.048Z,102390
2022-09-21T12:34:00.164Z,102390
2022-09-21T12:35:01.954Z,102390
2022-09-21T12:36:06.652Z,102390
2022-09-21T12:37:07.390Z,102390
2022-09-21T12:38:10.096Z,102390
2022-09-21T12:39:06.915Z,102390
2022-09-21T12:40:10.134Z,102390
2022-09-21T12:41:10.104Z,102380
2022-09-21T12:42:10.104Z,102380
2022-09-21T12:43:05.292Z,102380
2022-09-21T12:44:10.084Z,102380
2022-09-21T12:45:10.129Z,102380
2022-09-21T12:46:04.292Z,102380
2022-09-21T12:47:01.138Z,102380
2022-09-21T12:48:03.397Z,102380
2022-09-21T12:49:07.190Z,102370
2022-09-21T12:50:02.572Z,102370
2022-09-21T12:51:10.095Z,102370
2022-09-21T12:52:03.177Z,102370